createdAt,value
2022-08-11T00:04:19.633Z,101275.47
2022-08-11T00:09:17.766Z,101271.44
2022-08-11T00:14:16.627Z,101264.34
2022-08-11T00:19:20.182Z,101264.66
2022-08-11T00:24:52.055Z,101272.84
2022-08-11T00:29:55.443Z,101271.03
2022-08-11T00:34:52.761Z,101256.16
2022-08-11T00:40:16.477Z,101277.53
2022-08-11T00:45:18.632Z,101274.41
2022-08-11T00:50:20.092Z,101271.59
2022-08-11T00:55:36.776Z,101269.91
2022-08-11T01:00:44.044Z,101263.22
2022-08-11T01:06:07.861Z,101258.84
2022-08-11T01:11:25.157Z,101261.41
2022-08-11T01:16:38.605Z,101264.38
2022-08-11T01:21:54.035Z,101250.06
2022-08-11T01:27:18.842Z,101245.53
2022-08-11T01:32:49.482Z,101235.59
2022-08-11T01:38:00.467Z,101240.06
2022-08-11T01:43:33.354Z,101224.16
2022-08-11T01:48:35.855Z,101227.78
2022-08-11T01:53:39.963Z,101237.06
2022-08-11T01:58:43.461Z,101224.69
2022-08-11T02:03:44.446Z,101219.03
2022-08-11T02:08:50.361Z,101215.09
2022-08-11T02:13:53.245Z,101224.66
2022-08-11T02:19:11.201Z,101228.63
2022-08-11T02:24:14.310Z,101226.47
2022-08-11T02:29:15.619Z,101233.72
2022-08-11T02:34:18.385Z,101231.56
2022-08-11T02:39:19.965Z,101232.16
2022-08-11T02:44:25.011Z,101233.16
2022-08-11T02:49:46.021Z,101238.66
2022-08-11T02:55:03.478Z,101238.91
2022-08-11T03:00:06.891Z,101237.88
2022-08-11T03:05:13.229Z,101243.28
2022-08-11T03:10:14.501Z,101247.53
2022-08-11T03:15:34.167Z,101247.81
2022-08-11T03:20:37.976Z,101246.09
2022-08-11T03:25:44.647Z,101259.97
2022-08-11T03:30:46.011Z,101263.63
2022-08-11T03:35:45.604Z,101262.34
2022-08-11T03:42:01.913Z,101264.75
2022-08-11T03:46:45.824Z,101270.97
2022-08-11T03:51:51.709Z,101270.81
2022-08-11T03:57:20.340Z,101260.56
2022-08-11T04:02:43.921Z,101250.84
2022-08-11T04:07:59.021Z,101256.81
2022-08-11T04:13:09.485Z,101260.94
2022-08-11T04:18:24.656Z,101261.81
2022-08-11T04:24:36.904Z,101266.75
2022-08-11T04:29:09.533Z,101268.19
2022-08-11T04:34:28.613Z,101281.53
2022-08-11T04:39:36.424Z,101282.38
2022-08-11T04:44:51.951Z,101281.91
2022-08-11T04:50:13.470Z,101287.28
2022-08-11T04:55:43.078Z,101284.47
2022-08-11T05:01:04.199Z,101278.69
2022-08-11T05:06:24.291Z,101287.78
2022-08-11T05:11:35.802Z,101283.06
2022-08-11T05:16:53.936Z,101282.38
2022-08-11T05:22:18.701Z,101281.94
2022-08-11T05:27:33.727Z,101288.63
2022-08-11T05:32:52.413Z,101290.78
2022-08-11T05:38:08.863Z,101278.94
2022-08-11T05:43:29.789Z,101282.63
2022-08-11T05:48:50.331Z,101281.63
2022-08-11T05:54:28.844Z,101281.34
2022-08-11T05:59:25.600Z,101287.88
2022-08-11T06:04:23.784Z,101283.34
2022-08-11T06:09:28.109Z,101284.91
2022-08-11T06:14:28.100Z,101285.03
2022-08-11T06:19:33.531Z,101274.97
2022-08-11T06:24:32.863Z,101277.69
2022-08-11T06:29:37.989Z,101269.16
2022-08-11T06:34:55.977Z,101272.13
2022-08-11T06:39:58.513Z,101268.41
2022-08-11T06:45:01.358Z,101263.19
2022-08-11T06:50:17.553Z,101269.84
2022-08-11T06:55:57.506Z,101259.84
2022-08-11T07:00:54.779Z,101264.19
2022-08-11T07:05:54.915Z,101267.63
2022-08-11T07:11:19.421Z,101264.47
2022-08-11T07:16:19.143Z,101262.59
2022-08-11T07:22:02.402Z,101264.53
2022-08-11T07:27:19.432Z,101266.94
2022-08-11T07:32:19.285Z,101264.53
2022-08-11T07:37:19.251Z,101260.97
2022-08-11T07:42:19.768Z,101256.34
2022-08-11T07:47:36.500Z,101252.88
2022-08-11T07:52:37.501Z,101254.25
2022-08-11T07:58:15.994Z,101253.06
2022-08-11T08:03:27.997Z,101251.81
2022-08-11T08:08:44.437Z,101251.72
2022-08-11T08:13:59.807Z,101252.66
2022-08-11T08:18:56.551Z,101246.25
2022-08-11T08:23:56.205Z,101234.16
2022-08-11T08:29:15.812Z,101236.16
2022-08-11T08:34:13.343Z,101231.81
2022-08-11T08:39:12.341Z,101240.28
2022-08-11T08:44:35.067Z,101239.50
2022-08-11T08:49:32.893Z,101227.56
2022-08-11T08:54:33.990Z,101221.88
2022-08-11T08:59:47.933Z,101217.56
2022-08-11T09:04:46.775Z,101215.81
2022-08-11T09:15:03.390Z,101218.34
2022-08-11T09:20:02.417Z,101206.34
2022-08-11T09:25:20.365Z,101207.72
2022-08-11T09:30:19.205Z,101193.06
2022-08-11T09:35:17.495Z,101185.97
2022-08-11T09:40:30.516Z,101191.22
2022-08-11T09:45:27.645Z,101193.84
2022-08-11T09:50:38.808Z,101181.69
2022-08-11T09:55:36.585Z,101171.59
2022-08-11T10:00:37.117Z,101183.19
2022-08-11T10:05:52.747Z,101174.41
2022-08-11T10:11:01.795Z,101177.22
2022-08-11T10:16:15.860Z,101171.69
2022-08-11T10:21:16.265Z,101172.94
2022-08-11T10:26:32.165Z,101170.75
2022-08-11T10:31:57.829Z,101173.00
2022-08-11T10:37:02.423Z,101165.03
2022-08-11T10:42:34.988Z,101169.75
2022-08-11T10:47:35.181Z,101163.00
2022-08-11T10:52:50.348Z,101161.25
2022-08-11T10:58:06.266Z,101153.66
2022-08-11T11:03:23.377Z,101151.81
2022-08-11T11:14:06.332Z,101142.28
2022-08-11T11:19:05.470Z,101144.34
2022-08-11T11:24:14.569Z,101129.78
2022-08-11T11:29:21.007Z,101138.44
2022-08-11T11:34:23.713Z,101139.50
2022-08-11T11:39:21.591Z,101128.25
2022-08-11T11:44:20.021Z,101129.06
2022-08-11T11:49:18.076Z,101133.28
2022-08-11T11:54:15.452Z,101133.91
2022-08-11T11:59:30.797Z,101122.03
2022-08-11T12:04:29.124Z,101121.31
2022-08-11T12:09:26.093Z,101117.34
2022-08-11T12:14:25.166Z,101119.25
2022-08-11T12:19:24.039Z,101124.72
2022-08-11T12:24:39.464Z,101116.09
2022-08-11T12:29:41.206Z,101118.31
2022-08-11T12:34:42.045Z,101111.66
2022-08-11T12:40:16.219Z,101113.28
2022-08-11T12:45:28.850Z,101112.78
2022-08-11T12:50:44.368Z,101101.72
2022-08-11T12:56:03.902Z,101100.28
2022-08-11T13:01:22.450Z,101098.78
2022-08-11T13:06:19.740Z,101103.84
2022-08-11T13:11:55.892Z,101096.00
2022-08-11T13:17:10.947Z,101092.78
2022-08-11T13:22:11.219Z,101092.16
2022-08-11T13:27:11.624Z,101073.72
2022-08-11T13:32:08.702Z,101080.09
2022-08-11T13:37:05.530Z,101080.50
2022-08-11T13:42:03.090Z,101080.28
2022-08-11T13:47:04.779Z,101072.88
2022-08-11T13:52:02.079Z,101073.41
2022-08-11T13:57:01.695Z,101066.81
2022-08-11T14:02:21.223Z,101066.47
2022-08-11T14:07:22.141Z,101076.78
2022-08-11T14:12:39.337Z,101076.63
2022-08-11T14:17:48.189Z,101068.00
2022-08-11T14:22:47.240Z,101068.84
2022-08-11T14:28:33.923Z,101070.69
2022-08-11T14:33:01.171Z,101061.41
2022-08-11T14:38:16.180Z,101066.28
2022-08-11T14:44:04.865Z,101063.72
2022-08-11T14:48:48.195Z,101071.59
2022-08-11T14:53:58.276Z,101061.59
2022-08-11T14:58:55.782Z,101069.69
2022-08-11T15:04:34.349Z,101058.56
2022-08-11T15:09:10.050Z,101057.78
2022-08-11T15:14:08.568Z,101052.38
2022-08-11T15:19:05.679Z,101048.94
2022-08-11T15:24:20.455Z,101055.19
2022-08-11T15:29:38.378Z,101042.03
2022-08-11T15:34:53.818Z,101039.84
2022-08-11T15:40:31.313Z,101023.41
2022-08-11T15:45:49.595Z,101028.28
2022-08-11T15:50:48.966Z,101024.19
2022-08-11T15:55:47.040Z,101017.94
2022-08-11T16:01:04.405Z,101014.91
2022-08-11T16:06:06.829Z,101013.19
2022-08-11T16:11:07.748Z,101013.53
2022-08-11T16:16:18.163Z,101013.72
2022-08-11T16:21:26.049Z,101021.22
2022-08-11T16:27:11.491Z,101018.53
2022-08-11T16:32:07.825Z,101015.13
2022-08-11T16:37:23.178Z,101014.94
2022-08-11T16:43:05.309Z,101014.28
2022-08-11T16:48:32.404Z,101026.97
2022-08-11T16:53:12.526Z,101018.84
2022-08-11T16:58:28.129Z,101030.78
2022-08-11T17:03:47.936Z,101009.31
2022-08-11T17:09:04.818Z,101032.28
2022-08-11T17:14:07.010Z,101035.03
2022-08-11T17:19:06.664Z,101036.72
2022-08-11T17:24:09.030Z,101038.38
2022-08-11T17:29:06.509Z,101035.84
2022-08-11T17:34:20.593Z,101048.56
2022-08-11T17:39:18.979Z,101055.50
2022-08-11T17:44:34.286Z,101046.34
2022-08-11T17:49:36.865Z,101053.94
2022-08-11T17:54:53.492Z,101060.72
2022-08-11T17:59:53.439Z,101068.34
2022-08-11T18:04:51.715Z,101075.06
2022-08-11T18:10:07.525Z,101073.56
2022-08-11T18:15:22.947Z,101078.09
2022-08-11T18:20:46.732Z,101080.28
2022-08-11T18:26:07.097Z,101086.91
2022-08-11T18:31:23.873Z,101094.97
2022-08-11T18:36:40.209Z,101102.25
2022-08-11T18:41:56.466Z,101093.69
2022-08-11T18:47:11.805Z,101114.31
2022-08-11T18:52:27.638Z,101114.97
2022-08-11T18:57:47.079Z,101122.75
2022-08-11T19:03:09.646Z,101127.50
2022-08-11T19:08:26.603Z,101127.00
2022-08-11T19:13:44.139Z,101119.19
2022-08-11T19:19:02.424Z,101122.63
2022-08-11T19:24:20.320Z,101136.31
2022-08-11T19:30:06.907Z,101136.78
2022-08-11T19:35:12.448Z,101136.47
2022-08-11T19:40:28.660Z,101135.94
2022-08-11T19:45:44.809Z,101138.81
2022-08-11T19:51:07.028Z,101136.28
2022-08-11T19:56:23.326Z,101134.22
2022-08-11T20:01:39.147Z,101129.91
2022-08-11T20:07:14.766Z,101134.53
2022-08-11T20:12:30.265Z,101135.84
2022-08-11T20:17:46.987Z,101133.31
2022-08-11T20:23:03.264Z,101149.94
2022-08-11T20:28:19.354Z,101154.03
2022-08-11T20:33:35.444Z,101161.63
2022-08-11T20:38:51.335Z,101171.03
2022-08-11T20:44:09.295Z,101172.91
2022-08-11T20:49:25.761Z,101173.56
2022-08-11T20:54:44.803Z,101176.06
2022-08-11T21:00:00.549Z,101174.53
2022-08-11T21:05:19.511Z,101179.78
2022-08-11T21:10:53.243Z,101193.06
2022-08-11T21:16:09.078Z,101193.50
2022-08-11T21:21:45.437Z,101194.53
2022-08-11T21:27:03.704Z,101202.81
2022-08-11T21:32:19.182Z,101205.47
2022-08-11T21:37:35.891Z,101201.75
2022-08-11T21:42:52.369Z,101198.22
2022-08-11T21:48:07.550Z,101199.16
2022-08-11T21:53:23.701Z,101197.53
2022-08-11T21:58:39.431Z,101203.19
2022-08-11T22:03:54.210Z,101206.72
2022-08-11T22:09:09.785Z,101203.94
2022-08-11T22:14:24.715Z,101206.28
2022-08-11T22:19:40.121Z,101201.19
2022-08-11T22:24:56.419Z,101201.00
2022-08-11T22:30:12.524Z,101198.78
2022-08-11T22:35:28.811Z,101205.88
2022-08-11T22:40:44.725Z,101198.47
2022-08-11T22:45:59.386Z,101203.94
2022-08-11T22:51:15.749Z,101203.66
2022-08-11T22:56:32.084Z,101207.78
2022-08-11T23:01:55.412Z,101203.50
2022-08-11T23:07:11.947Z,101200.97
2022-08-11T23:12:27.673Z,101201.25
2022-08-11T23:17:43.466Z,101199.78
2022-08-11T23:22:58.671Z,101196.25
2022-08-11T23:28:16.380Z,101195.63
2022-08-11T23:33:33.898Z,101191.84
2022-08-11T23:38:49.658Z,101183.97
2022-08-11T23:44:06.453Z,101190.44
2022-08-11T23:49:21.791Z,101188.53
2022-08-11T23:54:37.609Z,101186.47
2022-08-11T23:59:54.006Z,101172.28
